Wylde Swan — PIWS — position and weather

sailwx.info

Track history (hours):
 
Tides and Currents Weather Stations Pressure Air Temp Water Temp Dewpoint Dewpoint Depression Visibility Wind Speed Wind Dir Waves Ship Positions

Wylde Swan

Last reported at 2020-Aug-13 10:01 UTC. Time now 2020-Aug-13 10:35 UTC.
Position N 52°04' E 001°42'.

Length 45 m; draft 3.4 m.

Type: Sailing vessel. MMSI: 244074000.

Date/timePositionNaut miles runAvg speedWind from/ knotsBaromVisibWave heightAir tempDewpointWater temp
2020-Aug-13 10:01N 52°04' E 001°42'2 1.2
2020-Aug-13 08:31N 52°05' E 001°39'6 5.7
2020-Aug-13 07:30N 52°04' E 001°49'7 6.8
2020-Aug-13 06:31N 52°07' E 001°38'2 4.7
2020-Aug-13 06:01N 52°09' E 001°40'5 4.9
2020-Aug-13 05:01N 52°12' E 001°46'11 5.4
2020-Aug-13 03:01N 52°14' E 002°03'3 5.2
2020-Aug-13 02:30N 52°15' E 002°07'9 4.3
2020-Aug-13 00:31N 52°20' E 002°19'6 4.1
2020-Aug-12 23:00N 52°24' E 002°27'7 4.8
2020-Aug-12 21:30N 52°24' E 002°39'2 4.8
2020-Aug-12 21:01N 52°23' E 002°42'2 4.6
2020-Aug-12 20:30N 52°22' E 002°46'16 4.6
2020-Aug-12 17:00N 52°23' E 003°12'11 5.3
2020-Aug-12 15:00N 52°28' E 003°28'4 4.2
2020-Aug-12 14:01N 52°30' E 003°34'5 3.6
2020-Aug-12 12:30N 52°34' E 003°40'10 4.8
2020-Aug-12 10:30N 52°39' E 003°53'1 2.1
2020-Aug-12 10:00N 52°40' E 003°54'5 2.6
2020-Aug-12 08:00N 52°42' E 004°02'2 1.4
2020-Aug-12 06:30N 52°41' E 004°06'14 4.1
2020-Aug-12 03:00N 52°50' E 004°24'2 3.9
2020-Aug-12 02:30N 52°51' E 004°26'10 3.0
2020-Aug-11 23:16N 53°01' E 004°30'0 1.5
2020-Aug-11 23:00N 53°01' E 004°31'5 3.6
2020-Aug-11 21:30N 53°06' E 004°35'2 4.1
2020-Aug-11 21:00N 53°08' E 004°37'4 3.7
2020-Aug-11 20:01N 53°11' E 004°39'11 4.5
2020-Aug-11 17:30N 53°19' E 004°53'13 2.8
2020-Aug-11 12:58N 53°21' E 005°14'0 0.0
2020-Aug-11 11:28N 53°21' E 005°14'0 0.0
2020-Aug-11 09:55N 53°21' E 005°14'0 0.0
2020-Aug-11 09:28N 53°21' E 005°14'4 1.7
2020-Aug-11 07:00N 53°20' E 005°08'5 5.0
2020-Aug-11 06:00N 53°19' E 004°59'4 3.9
2020-Aug-11 05:00N 53°18' E 004°53'16 4.0
2020-Aug-11 01:01N 53°06' E 004°36'3 2.6
2020-Aug-11 00:01N 53°03' E 004°35'5 2.0
2020-Aug-10 21:31N 52°60' E 004°29'11 3.1
2020-Aug-10 18:00N 52°50' E 004°23'10 1.8
2020-Aug-10 12:31N 52°42' E 004°33'12 3.4
2020-Aug-10 09:00N 52°30' E 004°32'3 5.2
2020-Aug-10 08:30N 52°28' E 004°33'1 0.1
2020-Aug-10 00:29N 52°28' E 004°35'0 0.0
2020-Aug-09 23:29N 52°28' E 004°35'0 0.0
2020-Aug-09 19:59N 52°28' E 004°35'0 0.0
2020-Aug-09 18:29N 52°28' E 004°35'0 0.0
2020-Aug-09 16:29N 52°28' E 004°35'0 0.0
2020-Aug-09 14:59N 52°28' E 004°35'0 0.0
2020-Aug-09 12:29N 52°28' E 004°35'0 0.0
2020-Aug-09 10:59N 52°28' E 004°35'0 0.0
2020-Aug-09 09:29N 52°28' E 004°35'0 0.0
2020-Aug-09 07:29N 52°28' E 004°35'0 0.0
2020-Aug-09 06:59N 52°28' E 004°35'0 0.0
2020-Aug-09 05:29N 52°28' E 004°35'0 0.0
2020-Aug-09 04:29N 52°28' E 004°35'0 0.0
2020-Aug-08 23:29N 52°28' E 004°35'0 0.0
2020-Aug-08 22:29N 52°28' E 004°35'0 0.0
2020-Aug-08 21:29N 52°28' E 004°35'0 0.0
2020-Aug-08 17:29N 52°28' E 004°35'0 0.0
2020-Aug-08 14:29N 52°28' E 004°35'0 0.0
2020-Aug-08 12:59N 52°28' E 004°35'0 0.0
2020-Aug-08 11:29N 52°28' E 004°35'0 0.0
2020-Aug-08 10:59N 52°28' E 004°35'0 0.0
2020-Aug-08 09:30N 52°28' E 004°35'0 0.0
2020-Aug-08 09:00N 52°28' E 004°35'3 3.1
2020-Aug-08 08:00N 52°27' E 004°30'2 0.5
2020-Aug-08 04:59N 52°26' E 004°28'0 0.0
2020-Aug-08 03:59N 52°26' E 004°28'0 0.1
2020-Aug-08 03:29N 52°26' E 004°28'0 0.1
2020-Aug-08 02:59N 52°26' E 004°28'0 0.0
2020-Aug-08 00:59N 52°26' E 004°28'0 0.0
2020-Aug-07 23:59N 52°26' E 004°28'0 0.0
2020-Aug-07 21:59N 52°26' E 004°28'0 0.0
2020-Aug-07 19:29N 52°26' E 004°28'0 0.0
2020-Aug-07 17:29N 52°26' E 004°28'0 0.0
2020-Aug-07 16:29N 52°26' E 004°28'0 0.0
2020-Aug-07 13:59N 52°26' E 004°28'0 0.0
2020-Aug-07 12:59N 52°26' E 004°28'0 0.0
2020-Aug-07 12:29N 52°26' E 004°28'0 0.0
2020-Aug-07 10:29N 52°26' E 004°28'0 0.0
2020-Aug-07 09:59N 52°26' E 004°28'9 2.4
2020-Aug-07 06:28N 52°32' E 004°17'0 0.0
2020-Aug-07 04:58N 52°32' E 004°17'0 0.0
2020-Aug-07 04:28N 52°32' E 004°17'0 0.0
2020-Aug-07 03:58N 52°32' E 004°17'0 0.0
2020-Aug-07 03:28N 52°32' E 004°17'0 0.0
2020-Aug-07 00:58N 52°32' E 004°17'0 0.0
2020-Aug-06 23:25N 52°32' E 004°17'0 0.0
2020-Aug-06 21:28N 52°32' E 004°17'0 0.0
2020-Aug-06 19:58N 52°32' E 004°17'0 0.0
2020-Aug-06 15:58N 52°32' E 004°17'0 0.0
2020-Aug-06 13:28N 52°32' E 004°17'1 0.1
2020-Aug-06 05:57N 52°32' E 004°17'0 0.0
2020-Aug-06 05:30N 52°32' E 004°17'0 0.0
2020-Aug-06 04:30N 52°32' E 004°17'0 0.0
2020-Aug-06 04:00N 52°32' E 004°17'0 0.0
2020-Aug-06 02:00N 52°32' E 004°17'0 0.0
2020-Aug-06 01:30N 52°32' E 004°17'0 0.0
2020-Aug-05 22:30N 52°32' E 004°17'0 0.0
2020-Aug-05 20:00N 52°32' E 004°17'0 0.0
2020-Aug-05 19:27N 52°32' E 004°17'0 0.0
2020-Aug-05 17:30N 52°32' E 004°17'9 2.7
2020-Aug-05 14:00N 52°36' E 004°03'3 3.1
2020-Aug-05 13:00N 52°36' E 003°57'2 4.4
2020-Aug-05 12:30N 52°36' E 003°54'6 1.9
2020-Aug-05 09:30N 52°31' E 003°50'15 4.9
2020-Aug-05 06:30N 52°21' E 004°09'4 1.8
2020-Aug-05 04:30N 52°20' E 004°04'23 5.8
2020-Aug-05 00:30N 52°19' E 003°26'16 7.5
2020-Aug-04 22:24N 52°19' E 003°00'11 7.2
2020-Aug-04 20:56N 52°20' E 002°43'7 7.4
2020-Aug-04 20:00N 52°20' E 002°32'20 6.6
2020-Aug-04 17:00N 52°03' E 002°17'31 5.2
2020-Aug-04 11:00N 51°31' E 002°19'4 2.5
2020-Aug-04 09:30N 51°29' E 002°15'1 2.6
2020-Aug-04 09:00N 51°27' E 002°14'1 2.2
2020-Aug-04 08:30N 51°27' E 002°13'10 2.7
2020-Aug-04 05:00N 51°18' E 002°05'4 4.0
2020-Aug-04 04:00N 51°15' E 002°03'5 4.5
2020-Aug-04 03:00N 51°11' E 001°58'27 6.0
2020-Aug-03 22:30N 50°52' E 001°29'  
Track history (hours):
 
Tides and Currents Weather Stations Pressure Air Temp Water Temp Dewpoint Dewpoint Depression Visibility Wind Speed Wind Dir Waves Ship Positions

Wylde Swan

Last reported at 2020-Aug-13 10:01 UTC. Time now 2020-Aug-13 10:36 UTC.
Position N 52°04' E 001°42'.

Length 45 m; draft 3.4 m.

Type: Sailing vessel. MMSI: 244074000.

Date/timePositionNaut miles runAvg speedWind from/ knotsBaromVisibWave heightAir tempDewpointWater temp
2020-Aug-13 10:01N 52°04' E 001°42'2 1.2
2020-Aug-13 08:31N 52°05' E 001°39'6 5.7
2020-Aug-13 07:30N 52°04' E 001°49'7 6.8
2020-Aug-13 06:31N 52°07' E 001°38'2 4.7
2020-Aug-13 06:01N 52°09' E 001°40'5 4.9
2020-Aug-13 05:01N 52°12' E 001°46'11 5.4
2020-Aug-13 03:01N 52°14' E 002°03'3 5.2
2020-Aug-13 02:30N 52°15' E 002°07'9 4.3
2020-Aug-13 00:31N 52°20' E 002°19'6 4.1
2020-Aug-12 23:00N 52°24' E 002°27'7 4.8
2020-Aug-12 21:30N 52°24' E 002°39'2 4.8
2020-Aug-12 21:01N 52°23' E 002°42'2 4.6
2020-Aug-12 20:30N 52°22' E 002°46'16 4.6
2020-Aug-12 17:00N 52°23' E 003°12'11 5.3
2020-Aug-12 15:00N 52°28' E 003°28'4 4.2
2020-Aug-12 14:01N 52°30' E 003°34'5 3.6
2020-Aug-12 12:30N 52°34' E 003°40'10 4.8
2020-Aug-12 10:30N 52°39' E 003°53'1 2.1
2020-Aug-12 10:00N 52°40' E 003°54'5 2.6
2020-Aug-12 08:00N 52°42' E 004°02'2 1.4
2020-Aug-12 06:30N 52°41' E 004°06'14 4.1
2020-Aug-12 03:00N 52°50' E 004°24'2 3.9
2020-Aug-12 02:30N 52°51' E 004°26'10 3.0
2020-Aug-11 23:16N 53°01' E 004°30'0 1.5
2020-Aug-11 23:00N 53°01' E 004°31'5 3.6
2020-Aug-11 21:30N 53°06' E 004°35'2 4.1
2020-Aug-11 21:00N 53°08' E 004°37'4 3.7
2020-Aug-11 20:01N 53°11' E 004°39'11 4.5
2020-Aug-11 17:30N 53°19' E 004°53'13 2.8
2020-Aug-11 12:58N 53°21' E 005°14'0 0.0
2020-Aug-11 11:28N 53°21' E 005°14'0 0.0
2020-Aug-11 09:55N 53°21' E 005°14'0 0.0
2020-Aug-11 09:28N 53°21' E 005°14'4 1.7
2020-Aug-11 07:00N 53°20' E 005°08'5 5.0
2020-Aug-11 06:00N 53°19' E 004°59'4 3.9
2020-Aug-11 05:00N 53°18' E 004°53'16 4.0
2020-Aug-11 01:01N 53°06' E 004°36'3 2.6
2020-Aug-11 00:01N 53°03' E 004°35'5 2.0
2020-Aug-10 21:31N 52°60' E 004°29'11 3.1
2020-Aug-10 18:00N 52°50' E 004°23'10 1.8
2020-Aug-10 12:31N 52°42' E 004°33'12 3.4
2020-Aug-10 09:00N 52°30' E 004°32'3 5.2
2020-Aug-10 08:30N 52°28' E 004°33'1 0.1
2020-Aug-10 00:29N 52°28' E 004°35'0 0.0
2020-Aug-09 23:29N 52°28' E 004°35'0 0.0
2020-Aug-09 19:59N 52°28' E 004°35'0 0.0
2020-Aug-09 18:29N 52°28' E 004°35'0 0.0
2020-Aug-09 16:29N 52°28' E 004°35'0 0.0
2020-Aug-09 14:59N 52°28' E 004°35'0 0.0
2020-Aug-09 12:29N 52°28' E 004°35'0 0.0
2020-Aug-09 10:59N 52°28' E 004°35'0 0.0
2020-Aug-09 09:29N 52°28' E 004°35'0 0.0
2020-Aug-09 07:29N 52°28' E 004°35'0 0.0
2020-Aug-09 06:59N 52°28' E 004°35'0 0.0
2020-Aug-09 05:29N 52°28' E 004°35'0 0.0
2020-Aug-09 04:29N 52°28' E 004°35'0 0.0
2020-Aug-08 23:29N 52°28' E 004°35'0 0.0
2020-Aug-08 22:29N 52°28' E 004°35'0 0.0
2020-Aug-08 21:29N 52°28' E 004°35'0 0.0
2020-Aug-08 17:29N 52°28' E 004°35'0 0.0
2020-Aug-08 14:29N 52°28' E 004°35'0 0.0
2020-Aug-08 12:59N 52°28' E 004°35'0 0.0
2020-Aug-08 11:29N 52°28' E 004°35'0 0.0
2020-Aug-08 10:59N 52°28' E 004°35'0 0.0
2020-Aug-08 09:30N 52°28' E 004°35'0 0.0
2020-Aug-08 09:00N 52°28' E 004°35'3 3.1
2020-Aug-08 08:00N 52°27' E 004°30'2 0.5
2020-Aug-08 04:59N 52°26' E 004°28'0 0.0
2020-Aug-08 03:59N 52°26' E 004°28'0 0.1
2020-Aug-08 03:29N 52°26' E 004°28'0 0.1
2020-Aug-08 02:59N 52°26' E 004°28'0 0.0
2020-Aug-08 00:59N 52°26' E 004°28'0 0.0
2020-Aug-07 23:59N 52°26' E 004°28'0 0.0
2020-Aug-07 21:59N 52°26' E 004°28'0 0.0
2020-Aug-07 19:29N 52°26' E 004°28'0 0.0
2020-Aug-07 17:29N 52°26' E 004°28'0 0.0
2020-Aug-07 16:29N 52°26' E 004°28'0 0.0
2020-Aug-07 13:59N 52°26' E 004°28'0 0.0
2020-Aug-07 12:59N 52°26' E 004°28'0 0.0
2020-Aug-07 12:29N 52°26' E 004°28'0 0.0
2020-Aug-07 10:29N 52°26' E 004°28'0 0.0
2020-Aug-07 09:59N 52°26' E 004°28'9 2.4
2020-Aug-07 06:28N 52°32' E 004°17'0 0.0
2020-Aug-07 04:58N 52°32' E 004°17'0 0.0
2020-Aug-07 04:28N 52°32' E 004°17'0 0.0
2020-Aug-07 03:58N 52°32' E 004°17'0 0.0
2020-Aug-07 03:28N 52°32' E 004°17'0 0.0
2020-Aug-07 00:58N 52°32' E 004°17'0 0.0
2020-Aug-06 23:25N 52°32' E 004°17'0 0.0
2020-Aug-06 21:28N 52°32' E 004°17'0 0.0
2020-Aug-06 19:58N 52°32' E 004°17'0 0.0
2020-Aug-06 15:58N 52°32' E 004°17'0 0.0
2020-Aug-06 13:28N 52°32' E 004°17'1 0.1
2020-Aug-06 05:57N 52°32' E 004°17'0 0.0
2020-Aug-06 05:30N 52°32' E 004°17'0 0.0
2020-Aug-06 04:30N 52°32' E 004°17'0 0.0
2020-Aug-06 04:00N 52°32' E 004°17'0 0.0
2020-Aug-06 02:00N 52°32' E 004°17'0 0.0
2020-Aug-06 01:30N 52°32' E 004°17'0 0.0
2020-Aug-05 22:30N 52°32' E 004°17'0 0.0
2020-Aug-05 20:00N 52°32' E 004°17'0 0.0
2020-Aug-05 19:27N 52°32' E 004°17'0 0.0
2020-Aug-05 17:30N 52°32' E 004°17'9 2.7
2020-Aug-05 14:00N 52°36' E 004°03'3 3.1
2020-Aug-05 13:00N 52°36' E 003°57'2 4.4
2020-Aug-05 12:30N 52°36' E 003°54'6 1.9
2020-Aug-05 09:30N 52°31' E 003°50'15 4.9
2020-Aug-05 06:30N 52°21' E 004°09'4 1.8
2020-Aug-05 04:30N 52°20' E 004°04'23 5.8
2020-Aug-05 00:30N 52°19' E 003°26'16 7.5
2020-Aug-04 22:24N 52°19' E 003°00'11 7.2
2020-Aug-04 20:56N 52°20' E 002°43'7 7.4
2020-Aug-04 20:00N 52°20' E 002°32'20 6.6
2020-Aug-04 17:00N 52°03' E 002°17'31 5.2
2020-Aug-04 11:00N 51°31' E 002°19'4 2.5
2020-Aug-04 09:30N 51°29' E 002°15'1 2.6
2020-Aug-04 09:00N 51°27' E 002°14'1 2.2
2020-Aug-04 08:30N 51°27' E 002°13'10 2.7
2020-Aug-04 05:00N 51°18' E 002°05'4 4.0
2020-Aug-04 04:00N 51°15' E 002°03'5 4.5
2020-Aug-04 03:00N 51°11' E 001°58'27 6.0
2020-Aug-03 22:30N 50°52' E 001°29'  

Dump ship's entire track history